sensor_id;sensor_type;location;lat;lon;timestamp;P1;durP1;ratioP1;P2;durP2;ratioP2
24650;SDS011;12783;48.824;8.662;2023-04-12T00:00:56;4.22;;;1.33;;
24650;SDS011;12783;48.824;8.662;2023-04-12T00:03:25;7.82;;;1.55;;
24650;SDS011;12783;48.824;8.662;2023-04-12T00:05:52;4.10;;;1.27;;
24650;SDS011;12783;48.824;8.662;2023-04-12T00:08:23;8.02;;;1.50;;
24650;SDS011;12783;48.824;8.662;2023-04-12T00:10:51;3.25;;;1.20;;
24650;SDS011;12783;48.824;8.662;2023-04-12T00:13:18;5.63;;;1.60;;
24650;SDS011;12783;48.824;8.662;2023-04-12T00:15:45;4.20;;;1.60;;
24650;SDS011;12783;48.824;8.662;2023-04-12T00:18:12;6.22;;;1.60;;
24650;SDS011;12783;48.824;8.662;2023-04-12T00:20:39;6.63;;;1.60;;
24650;SDS011;12783;48.824;8.662;2023-04-12T00:23:06;5.68;;;1.52;;
24650;SDS011;12783;48.824;8.662;2023-04-12T00:25:35;4.05;;;1.13;;
24650;SDS011;12783;48.824;8.662;2023-04-12T00:28:04;5.28;;;1.50;;
24650;SDS011;12783;48.824;8.662;2023-04-12T00:30:31;4.28;;;1.33;;
24650;SDS011;12783;48.824;8.662;2023-04-12T00:32:58;5.40;;;1.35;;
24650;SDS011;12783;48.824;8.662;2023-04-12T00:35:25;3.53;;;1.20;;
24650;SDS011;12783;48.824;8.662;2023-04-12T00:37:52;3.28;;;1.30;;
24650;SDS011;12783;48.824;8.662;2023-04-12T00:40:19;3.95;;;1.50;;
24650;SDS011;12783;48.824;8.662;2023-04-12T00:42:46;6.13;;;1.60;;
24650;SDS011;12783;48.824;8.662;2023-04-12T00:45:13;4.97;;;1.60;;
24650;SDS011;12783;48.824;8.662;2023-04-12T00:47:40;6.13;;;1.45;;
24650;SDS011;12783;48.824;8.662;2023-04-12T00:50:08;8.13;;;1.67;;
24650;SDS011;12783;48.824;8.662;2023-04-12T00:52:36;4.55;;;1.52;;
24650;SDS011;12783;48.824;8.662;2023-04-12T00:55:03;5.30;;;1.77;;
24650;SDS011;12783;48.824;8.662;2023-04-12T00:57:32;4.93;;;1.55;;
24650;SDS011;12783;48.824;8.662;2023-04-12T01:00:05;3.42;;;1.20;;
24650;SDS011;12783;48.824;8.662;2023-04-12T01:02:40;7.40;;;1.80;;
24650;SDS011;12783;48.824;8.662;2023-04-12T01:05:12;5.65;;;1.70;;
24650;SDS011;12783;48.824;8.662;2023-04-12T01:15:36;5.15;;;1.30;;
24650;SDS011;12783;48.824;8.662;2023-04-12T01:18:08;5.55;;;1.42;;
24650;SDS011;12783;48.824;8.662;2023-04-12T01:23:42;6.32;;;1.33;;
24650;SDS011;12783;48.824;8.662;2023-04-12T01:26:33;5.97;;;1.50;;
24650;SDS011;12783;48.824;8.662;2023-04-12T01:29:09;3.40;;;1.52;;
24650;SDS011;12783;48.824;8.662;2023-04-12T01:31:44;5.13;;;1.48;;
24650;SDS011;12783;48.824;8.662;2023-04-12T01:34:24;3.50;;;1.35;;
24650;SDS011;12783;48.824;8.662;2023-04-12T01:36:52;1.73;;;1.20;;
24650;SDS011;12783;48.824;8.662;2023-04-12T01:39:20;3.28;;;1.48;;
24650;SDS011;12783;48.824;8.662;2023-04-12T01:41:47;3.15;;;1.42;;
24650;SDS011;12783;48.824;8.662;2023-04-12T01:44:14;5.80;;;1.35;;
24650;SDS011;12783;48.824;8.662;2023-04-12T01:46:45;2.88;;;1.40;;
24650;SDS011;12783;48.824;8.662;2023-04-12T01:49:13;2.08;;;1.33;;
24650;SDS011;12783;48.824;8.662;2023-04-12T01:54:27;7.05;;;1.77;;
24650;SDS011;12783;48.824;8.662;2023-04-12T01:56:56;2.85;;;1.50;;
24650;SDS011;12783;48.824;8.662;2023-04-12T01:59:29;4.88;;;1.60;;
24650;SDS011;12783;48.824;8.662;2023-04-12T02:02:06;4.47;;;1.50;;
24650;SDS011;12783;48.824;8.662;2023-04-12T02:04:34;2.33;;;1.10;;
24650;SDS011;12783;48.824;8.662;2023-04-12T02:07:01;3.05;;;1.65;;
24650;SDS011;12783;48.824;8.662;2023-04-12T02:09:28;3.67;;;1.40;;
24650;SDS011;12783;48.824;8.662;2023-04-12T02:11:55;3.08;;;1.30;;
24650;SDS011;12783;48.824;8.662;2023-04-12T02:14:22;5.68;;;1.70;;
24650;SDS011;12783;48.824;8.662;2023-04-12T02:16:49;2.63;;;1.20;;
24650;SDS011;12783;48.824;8.662;2023-04-12T02:19:16;10.05;;;1.70;;
24650;SDS011;12783;48.824;8.662;2023-04-12T02:21:43;3.72;;;1.40;;
24650;SDS011;12783;48.824;8.662;2023-04-12T02:24:11;3.25;;;1.50;;
24650;SDS011;12783;48.824;8.662;2023-04-12T02:26:38;4.60;;;1.60;;
24650;SDS011;12783;48.824;8.662;2023-04-12T02:29:05;4.25;;;1.60;;
24650;SDS011;12783;48.824;8.662;2023-04-12T02:31:34;2.08;;;1.60;;
24650;SDS011;12783;48.824;8.662;2023-04-12T02:34:02;3.78;;;1.40;;
24650;SDS011;12783;48.824;8.662;2023-04-12T02:36:28;2.72;;;1.50;;
24650;SDS011;12783;48.824;8.662;2023-04-12T02:38:55;2.95;;;1.85;;
24650;SDS011;12783;48.824;8.662;2023-04-12T02:41:22;3.28;;;1.67;;
24650;SDS011;12783;48.824;8.662;2023-04-12T02:43:49;5.70;;;1.40;;
24650;SDS011;12783;48.824;8.662;2023-04-12T02:46:18;5.07;;;1.33;;
24650;SDS011;12783;48.824;8.662;2023-04-12T02:48:48;6.63;;;1.73;;
24650;SDS011;12783;48.824;8.662;2023-04-12T02:51:15;4.78;;;1.80;;
24650;SDS011;12783;48.824;8.662;2023-04-12T02:53:42;2.78;;;1.65;;
24650;SDS011;12783;48.824;8.662;2023-04-12T02:56:09;2.60;;;1.80;;
24650;SDS011;12783;48.824;8.662;2023-04-12T02:58:37;3.00;;;1.50;;
24650;SDS011;12783;48.824;8.662;2023-04-12T03:01:04;3.65;;;1.85;;
24650;SDS011;12783;48.824;8.662;2023-04-12T03:03:34;4.60;;;1.70;;
24650;SDS011;12783;48.824;8.662;2023-04-12T03:06:01;3.25;;;1.65;;
24650;SDS011;12783;48.824;8.662;2023-04-12T03:08:28;3.03;;;1.40;;
24650;SDS011;12783;48.824;8.662;2023-04-12T03:10:56;3.75;;;1.38;;
24650;SDS011;12783;48.824;8.662;2023-04-12T03:13:23;3.42;;;1.60;;
24650;SDS011;12783;48.824;8.662;2023-04-12T03:15:54;5.15;;;1.65;;
24650;SDS011;12783;48.824;8.662;2023-04-12T03:18:24;4.77;;;2.03;;
24650;SDS011;12783;48.824;8.662;2023-04-12T03:20:51;4.40;;;1.90;;
24650;SDS011;12783;48.824;8.662;2023-04-12T03:23:17;4.93;;;1.60;;
24650;SDS011;12783;48.824;8.662;2023-04-12T03:25:45;4.57;;;1.55;;
24650;SDS011;12783;48.824;8.662;2023-04-12T03:28:12;4.05;;;1.60;;
24650;SDS011;12783;48.824;8.662;2023-04-12T03:30:39;4.82;;;1.70;;
24650;SDS011;12783;48.824;8.662;2023-04-12T03:33:06;2.90;;;1.50;;
24650;SDS011;12783;48.824;8.662;2023-04-12T03:35:33;1.33;;;1.20;;
24650;SDS011;12783;48.824;8.662;2023-04-12T03:38:00;5.47;;;1.70;;
24650;SDS011;12783;48.824;8.662;2023-04-12T03:40:26;2.67;;;1.52;;
24650;SDS011;12783;48.824;8.662;2023-04-12T03:42:53;3.75;;;1.52;;
24650;SDS011;12783;48.824;8.662;2023-04-12T03:45:20;2.25;;;1.45;;
24650;SDS011;12783;48.824;8.662;2023-04-12T03:47:47;2.22;;;1.45;;
24650;SDS011;12783;48.824;8.662;2023-04-12T03:50:14;3.25;;;1.70;;
24650;SDS011;12783;48.824;8.662;2023-04-12T03:52:41;5.82;;;1.67;;
24650;SDS011;12783;48.824;8.662;2023-04-12T03:55:08;3.33;;;1.55;;
24650;SDS011;12783;48.824;8.662;2023-04-12T03:57:37;2.78;;;1.70;;
24650;SDS011;12783;48.824;8.662;2023-04-12T04:00:04;4.35;;;1.60;;
24650;SDS011;12783;48.824;8.662;2023-04-12T04:02:33;2.10;;;1.33;;
24650;SDS011;12783;48.824;8.662;2023-04-12T04:05:00;4.70;;;1.70;;
24650;SDS011;12783;48.824;8.662;2023-04-12T04:07:27;2.95;;;1.65;;
24650;SDS011;12783;48.824;8.662;2023-04-12T04:09:54;2.78;;;1.52;;
24650;SDS011;12783;48.824;8.662;2023-04-12T04:12:21;3.70;;;1.75;;
24650;SDS011;12783;48.824;8.662;2023-04-12T04:14:48;5.20;;;1.90;;
24650;SDS011;12783;48.824;8.662;2023-04-12T04:17:15;4.63;;;1.92;;
24650;SDS011;12783;48.824;8.662;2023-04-12T04:19:42;3.78;;;1.90;;
24650;SDS011;12783;48.824;8.662;2023-04-12T04:22:08;4.35;;;2.10;;
24650;SDS011;12783;48.824;8.662;2023-04-12T04:24:37;4.15;;;2.00;;
24650;SDS011;12783;48.824;8.662;2023-04-12T04:27:04;4.47;;;2.20;;
24650;SDS011;12783;48.824;8.662;2023-04-12T04:29:31;3.40;;;2.10;;
24650;SDS011;12783;48.824;8.662;2023-04-12T04:31:59;3.25;;;2.05;;
24650;SDS011;12783;48.824;8.662;2023-04-12T04:34:26;5.45;;;2.08;;
24650;SDS011;12783;48.824;8.662;2023-04-12T04:36:53;3.83;;;2.50;;
24650;SDS011;12783;48.824;8.662;2023-04-12T04:39:20;4.05;;;2.30;;
24650;SDS011;12783;48.824;8.662;2023-04-12T04:41:48;3.83;;;2.42;;
24650;SDS011;12783;48.824;8.662;2023-04-12T04:44:20;4.53;;;2.10;;
24650;SDS011;12783;48.824;8.662;2023-04-12T04:46:47;3.92;;;2.20;;
24650;SDS011;12783;48.824;8.662;2023-04-12T04:49:14;4.50;;;2.15;;
24650;SDS011;12783;48.824;8.662;2023-04-12T04:51:41;2.95;;;2.15;;
24650;SDS011;12783;48.824;8.662;2023-04-12T04:54:08;4.40;;;2.30;;
24650;SDS011;12783;48.824;8.662;2023-04-12T04:56:35;6.05;;;2.35;;
24650;SDS011;12783;48.824;8.662;2023-04-12T04:59:02;3.85;;;2.40;;
24650;SDS011;12783;48.824;8.662;2023-04-12T05:01:29;4.15;;;2.17;;
24650;SDS011;12783;48.824;8.662;2023-04-12T05:03:57;3.63;;;2.50;;
24650;SDS011;12783;48.824;8.662;2023-04-12T05:06:24;3.30;;;2.25;;
24650;SDS011;12783;48.824;8.662;2023-04-12T05:08:51;2.97;;;2.20;;
24650;SDS011;12783;48.824;8.662;2023-04-12T05:11:18;3.42;;;2.38;;
24650;SDS011;12783;48.824;8.662;2023-04-12T05:13:45;3.90;;;2.28;;
24650;SDS011;12783;48.824;8.662;2023-04-12T05:16:12;3.88;;;1.92;;
24650;SDS011;12783;48.824;8.662;2023-04-12T05:18:39;2.47;;;1.80;;
24650;SDS011;12783;48.824;8.662;2023-04-12T05:21:06;3.55;;;1.75;;
24650;SDS011;12783;48.824;8.662;2023-04-12T05:23:34;4.50;;;1.90;;
24650;SDS011;12783;48.824;8.662;2023-04-12T05:26:02;3.47;;;1.90;;
24650;SDS011;12783;48.824;8.662;2023-04-12T05:28:29;2.45;;;1.83;;
24650;SDS011;12783;48.824;8.662;2023-04-12T05:30:56;2.58;;;1.80;;
24650;SDS011;12783;48.824;8.662;2023-04-12T05:33:23;3.95;;;2.05;;
24650;SDS011;12783;48.824;8.662;2023-04-12T05:35:51;4.00;;;1.33;;
24650;SDS011;12783;48.824;8.662;2023-04-12T05:38:17;2.17;;;1.90;;
24650;SDS011;12783;48.824;8.662;2023-04-12T05:40:44;2.88;;;1.75;;
24650;SDS011;12783;48.824;8.662;2023-04-12T05:43:11;3.33;;;2.08;;
24650;SDS011;12783;48.824;8.662;2023-04-12T05:45:39;2.58;;;1.73;;
24650;SDS011;12783;48.824;8.662;2023-04-12T05:48:06;2.67;;;1.55;;
24650;SDS011;12783;48.824;8.662;2023-04-12T05:50:34;2.33;;;1.80;;
24650;SDS011;12783;48.824;8.662;2023-04-12T05:53:01;4.70;;;2.03;;
24650;SDS011;12783;48.824;8.662;2023-04-12T05:55:28;1.83;;;1.65;;
24650;SDS011;12783;48.824;8.662;2023-04-12T05:57:55;3.10;;;1.77;;
24650;SDS011;12783;48.824;8.662;2023-04-12T06:00:23;2.45;;;1.63;;
24650;SDS011;12783;48.824;8.662;2023-04-12T06:02:51;4.93;;;2.20;;
24650;SDS011;12783;48.824;8.662;2023-04-12T06:05:18;2.38;;;2.00;;
24650;SDS011;12783;48.824;8.662;2023-04-12T06:07:45;3.38;;;2.25;;
24650;SDS011;12783;48.824;8.662;2023-04-12T06:10:13;3.72;;;1.98;;
24650;SDS011;12783;48.824;8.662;2023-04-12T06:12:42;3.67;;;2.40;;
24650;SDS011;12783;48.824;8.662;2023-04-12T06:15:09;4.72;;;2.30;;
24650;SDS011;12783;48.824;8.662;2023-04-12T06:17:36;5.07;;;2.28;;
24650;SDS011;12783;48.824;8.662;2023-04-12T06:20:04;4.70;;;2.10;;
24650;SDS011;12783;48.824;8.662;2023-04-12T06:22:33;4.30;;;2.33;;
24650;SDS011;12783;48.824;8.662;2023-04-12T06:25:00;2.60;;;2.00;;
24650;SDS011;12783;48.824;8.662;2023-04-12T06:27:27;4.50;;;2.20;;
24650;SDS011;12783;48.824;8.662;2023-04-12T06:29:54;3.22;;;2.33;;
24650;SDS011;12783;48.824;8.662;2023-04-12T06:32:21;3.45;;;2.35;;
24650;SDS011;12783;48.824;8.662;2023-04-12T06:34:48;6.30;;;2.35;;
24650;SDS011;12783;48.824;8.662;2023-04-12T06:37:15;5.25;;;2.60;;
24650;SDS011;12783;48.824;8.662;2023-04-12T06:39:42;4.65;;;2.25;;
24650;SDS011;12783;48.824;8.662;2023-04-12T06:42:09;2.58;;;2.22;;
24650;SDS011;12783;48.824;8.662;2023-04-12T06:44:39;4.85;;;2.33;;
24650;SDS011;12783;48.824;8.662;2023-04-12T06:47:06;4.30;;;2.30;;
24650;SDS011;12783;48.824;8.662;2023-04-12T06:49:33;3.58;;;2.10;;
24650;SDS011;12783;48.824;8.662;2023-04-12T06:51:59;6.53;;;2.20;;
24650;SDS011;12783;48.824;8.662;2023-04-12T06:54:26;4.30;;;2.20;;
24650;SDS011;12783;48.824;8.662;2023-04-12T06:56:53;2.47;;;1.80;;
24650;SDS011;12783;48.824;8.662;2023-04-12T06:59:20;3.15;;;1.88;;
24650;SDS011;12783;48.824;8.662;2023-04-12T07:01:46;3.78;;;1.90;;
24650;SDS011;12783;48.824;8.662;2023-04-12T07:04:13;2.78;;;1.80;;
24650;SDS011;12783;48.824;8.662;2023-04-12T07:06:42;4.10;;;2.30;;
24650;SDS011;12783;48.824;8.662;2023-04-12T07:09:08;3.22;;;1.45;;
24650;SDS011;12783;48.824;8.662;2023-04-12T07:11:35;5.35;;;1.77;;
24650;SDS011;12783;48.824;8.662;2023-04-12T07:14:02;3.63;;;1.58;;
24650;SDS011;12783;48.824;8.662;2023-04-12T07:16:29;3.88;;;1.42;;
24650;SDS011;12783;48.824;8.662;2023-04-12T07:18:59;4.18;;;1.70;;
24650;SDS011;12783;48.824;8.662;2023-04-12T07:21:26;3.00;;;1.67;;
24650;SDS011;12783;48.824;8.662;2023-04-12T07:23:53;6.30;;;2.67;;
24650;SDS011;12783;48.824;8.662;2023-04-12T07:26:21;4.18;;;1.77;;
24650;SDS011;12783;48.824;8.662;2023-04-12T07:28:48;6.07;;;1.90;;
24650;SDS011;12783;48.824;8.662;2023-04-12T07:31:15;6.65;;;1.73;;
24650;SDS011;12783;48.824;8.662;2023-04-12T07:33:42;1.77;;;1.40;;
24650;SDS011;12783;48.824;8.662;2023-04-12T07:36:09;8.95;;;1.83;;
24650;SDS011;12783;48.824;8.662;2023-04-12T07:38:37;6.95;;;1.95;;
24650;SDS011;12783;48.824;8.662;2023-04-12T07:41:04;5.82;;;1.80;;
24650;SDS011;12783;48.824;8.662;2023-04-12T07:43:31;4.10;;;1.75;;
24650;SDS011;12783;48.824;8.662;2023-04-12T07:45:58;5.93;;;1.80;;
24650;SDS011;12783;48.824;8.662;2023-04-12T07:48:25;4.28;;;2.10;;
24650;SDS011;12783;48.824;8.662;2023-04-12T07:50:52;4.97;;;2.20;;
24650;SDS011;12783;48.824;8.662;2023-04-12T07:53:22;8.65;;;1.85;;
24650;SDS011;12783;48.824;8.662;2023-04-12T07:55:51;4.72;;;2.40;;
24650;SDS011;12783;48.824;8.662;2023-04-12T07:58:19;7.70;;;1.95;;
24650;SDS011;12783;48.824;8.662;2023-04-12T08:00:47;11.10;;;2.85;;
24650;SDS011;12783;48.824;8.662;2023-04-12T08:03:15;9.18;;;3.10;;
24650;SDS011;12783;48.824;8.662;2023-04-12T08:05:43;6.15;;;2.70;;
24650;SDS011;12783;48.824;8.662;2023-04-12T08:08:10;3.45;;;2.25;;
24650;SDS011;12783;48.824;8.662;2023-04-12T08:10:37;4.00;;;1.90;;
24650;SDS011;12783;48.824;8.662;2023-04-12T08:13:05;8.30;;;2.30;;
24650;SDS011;12783;48.824;8.662;2023-04-12T08:15:32;9.10;;;2.78;;
24650;SDS011;12783;48.824;8.662;2023-04-12T08:17:59;8.93;;;2.72;;
24650;SDS011;12783;48.824;8.662;2023-04-12T08:20:27;7.10;;;2.35;;
24650;SDS011;12783;48.824;8.662;2023-04-12T08:22:54;6.97;;;2.17;;
24650;SDS011;12783;48.824;8.662;2023-04-12T08:25:21;4.78;;;1.77;;
24650;SDS011;12783;48.824;8.662;2023-04-12T08:27:49;7.10;;;2.08;;
24650;SDS011;12783;48.824;8.662;2023-04-12T08:30:17;7.28;;;2.38;;
24650;SDS011;12783;48.824;8.662;2023-04-12T08:32:44;3.67;;;1.90;;
24650;SDS011;12783;48.824;8.662;2023-04-12T08:35:11;5.22;;;2.50;;
24650;SDS011;12783;48.824;8.662;2023-04-12T08:37:39;3.97;;;2.20;;
24650;SDS011;12783;48.824;8.662;2023-04-12T08:40:06;5.43;;;2.03;;
24650;SDS011;12783;48.824;8.662;2023-04-12T08:42:34;7.55;;;2.20;;
24650;SDS011;12783;48.824;8.662;2023-04-12T08:45:03;6.38;;;2.45;;
24650;SDS011;12783;48.824;8.662;2023-04-12T08:47:31;5.65;;;2.22;;
24650;SDS011;12783;48.824;8.662;2023-04-12T08:50:00;7.72;;;2.38;;
24650;SDS011;12783;48.824;8.662;2023-04-12T08:52:28;3.28;;;1.77;;
24650;SDS011;12783;48.824;8.662;2023-04-12T08:54:55;4.82;;;2.00;;
24650;SDS011;12783;48.824;8.662;2023-04-12T08:57:22;3.58;;;2.20;;
24650;SDS011;12783;48.824;8.662;2023-04-12T08:59:49;3.67;;;2.00;;
24650;SDS011;12783;48.824;8.662;2023-04-12T09:02:17;5.32;;;2.10;;
24650;SDS011;12783;48.824;8.662;2023-04-12T09:04:48;4.55;;;2.03;;
24650;SDS011;12783;48.824;8.662;2023-04-12T09:07:16;5.40;;;2.30;;
24650;SDS011;12783;48.824;8.662;2023-04-12T09:09:43;6.28;;;2.13;;
24650;SDS011;12783;48.824;8.662;2023-04-12T09:12:12;8.32;;;2.28;;
24650;SDS011;12783;48.824;8.662;2023-04-12T09:14:39;5.40;;;2.00;;
24650;SDS011;12783;48.824;8.662;2023-04-12T09:17:22;2.67;;;1.65;;
24650;SDS011;12783;48.824;8.662;2023-04-12T09:19:51;4.65;;;1.92;;
24650;SDS011;12783;48.824;8.662;2023-04-12T09:22:18;4.80;;;2.17;;
24650;SDS011;12783;48.824;8.662;2023-04-12T09:24:56;10.02;;;1.90;;
24650;SDS011;12783;48.824;8.662;2023-04-12T09:27:23;4.30;;;1.80;;
24650;SDS011;12783;48.824;8.662;2023-04-12T09:29:50;3.53;;;1.70;;
24650;SDS011;12783;48.824;8.662;2023-04-12T09:32:23;8.27;;;1.80;;
24650;SDS011;12783;48.824;8.662;2023-04-12T09:34:55;6.20;;;1.90;;
24650;SDS011;12783;48.824;8.662;2023-04-12T09:37:31;3.15;;;1.88;;
24650;SDS011;12783;48.824;8.662;2023-04-12T09:39:59;5.05;;;1.83;;
24650;SDS011;12783;48.824;8.662;2023-04-12T09:42:30;2.90;;;1.60;;
24650;SDS011;12783;48.824;8.662;2023-04-12T09:45:00;4.47;;;1.90;;
24650;SDS011;12783;48.824;8.662;2023-04-12T09:47:47;4.72;;;1.73;;
24650;SDS011;12783;48.824;8.662;2023-04-12T09:50:26;5.68;;;1.90;;
24650;SDS011;12783;48.824;8.662;2023-04-12T09:52:55;4.15;;;1.48;;
24650;SDS011;12783;48.824;8.662;2023-04-12T09:55:23;3.33;;;1.77;;
24650;SDS011;12783;48.824;8.662;2023-04-12T09:57:51;5.30;;;1.80;;
24650;SDS011;12783;48.824;8.662;2023-04-12T10:00:23;3.80;;;1.80;;
24650;SDS011;12783;48.824;8.662;2023-04-12T10:02:53;3.85;;;1.58;;
24650;SDS011;12783;48.824;8.662;2023-04-12T10:05:22;2.80;;;1.45;;
24650;SDS011;12783;48.824;8.662;2023-04-12T10:07:53;5.28;;;1.40;;
24650;SDS011;12783;48.824;8.662;2023-04-12T10:10:21;2.10;;;1.50;;
24650;SDS011;12783;48.824;8.662;2023-04-12T10:12:48;5.25;;;1.55;;
24650;SDS011;12783;48.824;8.662;2023-04-12T10:15:15;3.90;;;1.20;;
24650;SDS011;12783;48.824;8.662;2023-04-12T10:17:44;3.85;;;1.30;;
24650;SDS011;12783;48.824;8.662;2023-04-12T10:20:13;2.88;;;1.38;;
24650;SDS011;12783;48.824;8.662;2023-04-12T10:22:43;4.28;;;1.10;;
24650;SDS011;12783;48.824;8.662;2023-04-12T10:25:11;4.13;;;1.45;;
24650;SDS011;12783;48.824;8.662;2023-04-12T10:27:41;3.00;;;1.23;;
24650;SDS011;12783;48.824;8.662;2023-04-12T10:30:22;3.03;;;1.10;;
24650;SDS011;12783;48.824;8.662;2023-04-12T10:35:54;1.00;;;0.88;;
24650;SDS011;12783;48.824;8.662;2023-04-12T10:38:45;1.88;;;1.00;;
24650;SDS011;12783;48.824;8.662;2023-04-12T10:41:13;1.83;;;0.80;;
24650;SDS011;12783;48.824;8.662;2023-04-12T10:43:42;2.60;;;1.05;;
24650;SDS011;12783;48.824;8.662;2023-04-12T10:49:15;2.92;;;0.70;;
24650;SDS011;12783;48.824;8.662;2023-04-12T10:54:31;2.20;;;1.00;;
24650;SDS011;12783;48.824;8.662;2023-04-12T10:57:02;2.55;;;1.00;;
24650;SDS011;12783;48.824;8.662;2023-04-12T11:02:16;2.95;;;1.00;;
24650;SDS011;12783;48.824;8.662;2023-04-12T11:07:39;2.05;;;1.10;;
24650;SDS011;12783;48.824;8.662;2023-04-12T11:10:14;3.38;;;1.35;;
24650;SDS011;12783;48.824;8.662;2023-04-12T11:12:48;0.95;;;0.77;;
24650;SDS011;12783;48.824;8.662;2023-04-12T11:15:16;1.88;;;0.98;;
24650;SDS011;12783;48.824;8.662;2023-04-12T11:17:51;0.98;;;0.88;;
24650;SDS011;12783;48.824;8.662;2023-04-12T11:20:19;3.35;;;1.10;;
24650;SDS011;12783;48.824;8.662;2023-04-12T11:22:46;1.95;;;0.85;;
24650;SDS011;12783;48.824;8.662;2023-04-12T11:25:16;1.48;;;0.90;;
24650;SDS011;12783;48.824;8.662;2023-04-12T11:27:49;2.53;;;1.00;;
24650;SDS011;12783;48.824;8.662;2023-04-12T11:30:17;2.73;;;1.03;;
24650;SDS011;12783;48.824;8.662;2023-04-12T11:32:45;1.17;;;0.75;;
24650;SDS011;12783;48.824;8.662;2023-04-12T11:35:15;2.67;;;1.05;;
24650;SDS011;12783;48.824;8.662;2023-04-12T11:37:45;1.10;;;0.82;;
24650;SDS011;12783;48.824;8.662;2023-04-12T11:40:12;3.15;;;0.95;;
24650;SDS011;12783;48.824;8.662;2023-04-12T11:42:39;1.38;;;0.68;;
24650;SDS011;12783;48.824;8.662;2023-04-12T11:45:07;1.48;;;0.80;;
24650;SDS011;12783;48.824;8.662;2023-04-12T11:47:43;4.35;;;0.82;;
24650;SDS011;12783;48.824;8.662;2023-04-12T11:50:10;3.15;;;0.80;;
24650;SDS011;12783;48.824;8.662;2023-04-12T11:52:37;0.80;;;0.63;;
24650;SDS011;12783;48.824;8.662;2023-04-12T11:55:06;1.33;;;0.70;;
24650;SDS011;12783;48.824;8.662;2023-04-12T11:57:36;3.03;;;0.73;;
24650;SDS011;12783;48.824;8.662;2023-04-12T12:00:04;0.85;;;0.70;;
24650;SDS011;12783;48.824;8.662;2023-04-12T12:02:32;1.33;;;0.63;;
24650;SDS011;12783;48.824;8.662;2023-04-12T12:05:11;1.55;;;0.52;;
24650;SDS011;12783;48.824;8.662;2023-04-12T12:07:38;1.65;;;0.77;;
24650;SDS011;12783;48.824;8.662;2023-04-12T12:10:05;2.30;;;0.68;;
24650;SDS011;12783;48.824;8.662;2023-04-12T12:12:33;2.00;;;0.70;;
24650;SDS011;12783;48.824;8.662;2023-04-12T12:15:00;0.80;;;0.52;;
24650;SDS011;12783;48.824;8.662;2023-04-12T12:17:27;1.45;;;0.68;;
24650;SDS011;12783;48.824;8.662;2023-04-12T12:19:55;0.98;;;0.50;;
24650;SDS011;12783;48.824;8.662;2023-04-12T12:22:23;0.55;;;0.50;;
24650;SDS011;12783;48.824;8.662;2023-04-12T12:24:59;1.10;;;0.70;;
24650;SDS011;12783;48.824;8.662;2023-04-12T12:27:33;2.28;;;0.60;;
24650;SDS011;12783;48.824;8.662;2023-04-12T12:30:03;4.13;;;0.80;;
24650;SDS011;12783;48.824;8.662;2023-04-12T12:32:32;0.80;;;0.60;;
24650;SDS011;12783;48.824;8.662;2023-04-12T12:35:07;2.00;;;0.82;;
24650;SDS011;12783;48.824;8.662;2023-04-12T12:37:35;0.82;;;0.50;;
24650;SDS011;12783;48.824;8.662;2023-04-12T12:42:33;1.23;;;0.68;;
24650;SDS011;12783;48.824;8.662;2023-04-12T12:45:00;1.80;;;0.70;;
24650;SDS011;12783;48.824;8.662;2023-04-12T12:47:27;0.80;;;0.63;;
24650;SDS011;12783;48.824;8.662;2023-04-12T12:49:54;2.08;;;0.40;;
24650;SDS011;12783;48.824;8.662;2023-04-12T12:52:21;0.75;;;0.50;;
24650;SDS011;12783;48.824;8.662;2023-04-12T12:54:47;0.55;;;0.55;;
24650;SDS011;12783;48.824;8.662;2023-04-12T12:57:14;0.55;;;0.40;;
24650;SDS011;12783;48.824;8.662;2023-04-12T12:59:41;0.55;;;0.45;;
24650;SDS011;12783;48.824;8.662;2023-04-12T13:02:08;0.60;;;0.60;;
24650;SDS011;12783;48.824;8.662;2023-04-12T13:04:35;0.65;;;0.40;;
24650;SDS011;12783;48.824;8.662;2023-04-12T13:07:02;1.33;;;1.10;;
24650;SDS011;12783;48.824;8.662;2023-04-12T13:09:30;2.83;;;0.70;;
24650;SDS011;12783;48.824;8.662;2023-04-12T13:11:56;2.03;;;0.50;;
24650;SDS011;12783;48.824;8.662;2023-04-12T13:14:23;0.40;;;0.30;;
24650;SDS011;12783;48.824;8.662;2023-04-12T13:16:50;1.88;;;0.65;;
24650;SDS011;12783;48.824;8.662;2023-04-12T13:19:17;2.13;;;0.50;;
24650;SDS011;12783;48.824;8.662;2023-04-12T13:21:44;1.45;;;0.40;;
24650;SDS011;12783;48.824;8.662;2023-04-12T13:24:11;2.42;;;0.68;;
24650;SDS011;12783;48.824;8.662;2023-04-12T13:26:38;1.48;;;0.60;;
24650;SDS011;12783;48.824;8.662;2023-04-12T13:29:05;1.85;;;0.80;;
24650;SDS011;12783;48.824;8.662;2023-04-12T13:31:32;1.67;;;0.52;;
24650;SDS011;12783;48.824;8.662;2023-04-12T13:33:59;3.80;;;0.40;;
24650;SDS011;12783;48.824;8.662;2023-04-12T13:36:26;1.38;;;0.50;;
24650;SDS011;12783;48.824;8.662;2023-04-12T13:38:53;1.35;;;0.55;;
24650;SDS011;12783;48.824;8.662;2023-04-12T13:41:19;2.10;;;0.52;;
24650;SDS011;12783;48.824;8.662;2023-04-12T13:43:46;0.50;;;0.50;;
24650;SDS011;12783;48.824;8.662;2023-04-12T13:46:13;1.40;;;0.57;;
24650;SDS011;12783;48.824;8.662;2023-04-12T13:48:40;0.63;;;0.40;;
24650;SDS011;12783;48.824;8.662;2023-04-12T13:51:07;1.33;;;0.88;;
24650;SDS011;12783;48.824;8.662;2023-04-12T13:53:34;1.90;;;0.60;;
24650;SDS011;12783;48.824;8.662;2023-04-12T13:56:01;0.57;;;0.50;;
24650;SDS011;12783;48.824;8.662;2023-04-12T13:58:28;1.60;;;0.50;;
24650;SDS011;12783;48.824;8.662;2023-04-12T14:00:55;1.52;;;0.57;;
24650;SDS011;12783;48.824;8.662;2023-04-12T14:03:24;0.60;;;0.60;;
24650;SDS011;12783;48.824;8.662;2023-04-12T14:05:51;1.35;;;0.50;;
24650;SDS011;12783;48.824;8.662;2023-04-12T14:08:18;0.70;;;0.40;;
24650;SDS011;12783;48.824;8.662;2023-04-12T14:10:45;1.15;;;0.60;;
24650;SDS011;12783;48.824;8.662;2023-04-12T14:13:12;0.55;;;0.40;;
24650;SDS011;12783;48.824;8.662;2023-04-12T14:15:39;2.28;;;0.40;;
24650;SDS011;12783;48.824;8.662;2023-04-12T14:18:05;0.88;;;0.40;;
24650;SDS011;12783;48.824;8.662;2023-04-12T14:20:32;2.80;;;0.60;;
24650;SDS011;12783;48.824;8.662;2023-04-12T14:22:59;1.67;;;0.50;;
24650;SDS011;12783;48.824;8.662;2023-04-12T14:25:26;0.88;;;0.70;;
24650;SDS011;12783;48.824;8.662;2023-04-12T14:27:53;1.40;;;0.70;;
24650;SDS011;12783;48.824;8.662;2023-04-12T14:30:19;1.02;;;0.63;;
24650;SDS011;12783;48.824;8.662;2023-04-12T14:32:46;0.57;;;0.57;;
24650;SDS011;12783;48.824;8.662;2023-04-12T14:35:14;1.65;;;0.60;;
24650;SDS011;12783;48.824;8.662;2023-04-12T14:37:42;1.27;;;0.70;;
24650;SDS011;12783;48.824;8.662;2023-04-12T14:40:09;3.40;;;0.60;;
24650;SDS011;12783;48.824;8.662;2023-04-12T14:42:35;0.30;;;0.30;;
24650;SDS011;12783;48.824;8.662;2023-04-12T14:45:03;0.43;;;0.30;;
24650;SDS011;12783;48.824;8.662;2023-04-12T14:47:33;1.20;;;0.47;;
24650;SDS011;12783;48.824;8.662;2023-04-12T14:50:00;0.20;;;0.20;;
24650;SDS011;12783;48.824;8.662;2023-04-12T14:52:27;2.80;;;0.40;;
24650;SDS011;12783;48.824;8.662;2023-04-12T14:54:54;2.47;;;0.35;;
24650;SDS011;12783;48.824;8.662;2023-04-12T14:57:21;0.28;;;0.28;;
24650;SDS011;12783;48.824;8.662;2023-04-12T14:59:49;0.40;;;0.30;;
24650;SDS011;12783;48.824;8.662;2023-04-12T15:02:16;0.80;;;0.50;;
24650;SDS011;12783;48.824;8.662;2023-04-12T15:04:43;2.47;;;0.75;;
24650;SDS011;12783;48.824;8.662;2023-04-12T15:07:12;0.40;;;0.40;;
24650;SDS011;12783;48.824;8.662;2023-04-12T15:09:39;0.50;;;0.50;;
24650;SDS011;12783;48.824;8.662;2023-04-12T15:12:06;1.60;;;0.80;;
24650;SDS011;12783;48.824;8.662;2023-04-12T15:14:33;0.90;;;0.60;;
24650;SDS011;12783;48.824;8.662;2023-04-12T15:17:00;1.40;;;0.90;;
24650;SDS011;12783;48.824;8.662;2023-04-12T15:19:27;0.80;;;0.80;;
24650;SDS011;12783;48.824;8.662;2023-04-12T15:21:54;1.30;;;0.90;;
24650;SDS011;12783;48.824;8.662;2023-04-12T15:24:21;1.77;;;0.57;;